Карточка аэропорта URWI

Внимание!
Информация на этой странице в стадии наполнения.
Если вы не увидели какой-то информации, или заметили неточность - пожалуйста сообщите нам!
Спасибо!
Команда RU-STAFF
Название аэропортаЭлиста
Название аэропорта (англ.)Elista
Превышение502 ft. (153 m.)
Координаты46°22.476', 44°19.428'
Высота перехода900
Эшелон перехода050
Коды ответчика1000
Зона ОрВДРостов-на-Дону РПИ (URRV)
Данные METARURWI 241530Z AUTO 25004MPS 9999 // ///////// 12/09 Q1012
Проноз погоды (TAF)URWI 010200Z 0103/0312 19003G10MPS 6000 BKN016 TEMPO 0103/0106 23006G12MPS 0300 FG BKN002 BECMG 0106/0108 26006G12MPS
NOTAMshow/hide NOTAM
AWOS   TABLE

Информация о ВПП

ВПП Длина ВПП (м.) Покрытие Курс ВПП Частота ILS
093200Асфальтобетон90108.5
273200Асфальтобетон270 

Диспетчерские позиции




Спутниковое изображение